sensor_id;sensor_type;location;lat;lon;timestamp;P1;durP1;ratioP1;P2;durP2;ratioP2
47804;SDS011;33568;45.286;9.900;2022-08-30T00:01:25;7.55;;;6.75;;
47804;SDS011;33568;45.286;9.900;2022-08-30T00:03:54;9.70;;;7.90;;
47804;SDS011;33568;45.286;9.900;2022-08-30T00:06:21;7.53;;;6.55;;
47804;SDS011;33568;45.286;9.900;2022-08-30T00:08:48;11.73;;;6.82;;
47804;SDS011;33568;45.286;9.900;2022-08-30T00:11:17;7.78;;;6.97;;
47804;SDS011;33568;45.286;9.900;2022-08-30T00:13:53;9.77;;;7.75;;
47804;SDS011;33568;45.286;9.900;2022-08-30T00:16:21;11.07;;;9.57;;
47804;SDS011;33568;45.286;9.900;2022-08-30T00:18:48;10.50;;;8.02;;
47804;SDS011;33568;45.286;9.900;2022-08-30T00:21:14;10.88;;;8.38;;
47804;SDS011;33568;45.286;9.900;2022-08-30T00:23:41;10.90;;;8.00;;
47804;SDS011;33568;45.286;9.900;2022-08-30T00:26:07;10.38;;;6.78;;
47804;SDS011;33568;45.286;9.900;2022-08-30T00:28:34;8.50;;;7.28;;
47804;SDS011;33568;45.286;9.900;2022-08-30T00:31:01;9.43;;;7.65;;
47804;SDS011;33568;45.286;9.900;2022-08-30T00:33:28;7.78;;;6.80;;
47804;SDS011;33568;45.286;9.900;2022-08-30T00:35:54;11.35;;;8.18;;
47804;SDS011;33568;45.286;9.900;2022-08-30T00:38:21;10.55;;;9.23;;
47804;SDS011;33568;45.286;9.900;2022-08-30T00:40:49;8.07;;;7.35;;
47804;SDS011;33568;45.286;9.900;2022-08-30T00:43:24;9.38;;;7.00;;
47804;SDS011;33568;45.286;9.900;2022-08-30T00:45:54;10.32;;;8.18;;
47804;SDS011;33568;45.286;9.900;2022-08-30T00:48:21;9.48;;;7.80;;
47804;SDS011;33568;45.286;9.900;2022-08-30T00:50:52;8.63;;;7.00;;
47804;SDS011;33568;45.286;9.900;2022-08-30T00:53:28;13.27;;;8.57;;
47804;SDS011;33568;45.286;9.900;2022-08-30T00:55:58;10.37;;;7.80;;
47804;SDS011;33568;45.286;9.900;2022-08-30T00:58:27;9.52;;;7.40;;
47804;SDS011;33568;45.286;9.900;2022-08-30T01:00:57;9.48;;;8.35;;
47804;SDS011;33568;45.286;9.900;2022-08-30T01:03:27;7.75;;;6.95;;
47804;SDS011;33568;45.286;9.900;2022-08-30T01:05:55;8.05;;;7.05;;
47804;SDS011;33568;45.286;9.900;2022-08-30T01:08:23;10.13;;;7.40;;
47804;SDS011;33568;45.286;9.900;2022-08-30T01:10:50;7.88;;;6.97;;
47804;SDS011;33568;45.286;9.900;2022-08-30T01:13:18;10.20;;;8.38;;
47804;SDS011;33568;45.286;9.900;2022-08-30T01:15:46;8.93;;;7.43;;
47804;SDS011;33568;45.286;9.900;2022-08-30T01:18:15;9.32;;;7.53;;
47804;SDS011;33568;45.286;9.900;2022-08-30T01:23:16;9.25;;;8.18;;
47804;SDS011;33568;45.286;9.900;2022-08-30T01:25:45;10.88;;;7.88;;
47804;SDS011;33568;45.286;9.900;2022-08-30T01:28:18;8.57;;;7.70;;
47804;SDS011;33568;45.286;9.900;2022-08-30T01:30:51;11.38;;;8.73;;
47804;SDS011;33568;45.286;9.900;2022-08-30T01:33:17;10.60;;;7.88;;
47804;SDS011;33568;45.286;9.900;2022-08-30T01:36:01;14.68;;;11.15;;
47804;SDS011;33568;45.286;9.900;2022-08-30T01:38:32;8.80;;;7.90;;
47804;SDS011;33568;45.286;9.900;2022-08-30T01:43:41;14.75;;;12.98;;
47804;SDS011;33568;45.286;9.900;2022-08-30T01:46:07;9.48;;;8.13;;
47804;SDS011;33568;45.286;9.900;2022-08-30T01:48:37;10.48;;;8.05;;
47804;SDS011;33568;45.286;9.900;2022-08-30T01:51:05;9.45;;;8.43;;
47804;SDS011;33568;45.286;9.900;2022-08-30T01:53:34;9.63;;;7.40;;
47804;SDS011;33568;45.286;9.900;2022-08-30T01:56:03;11.15;;;7.93;;
47804;SDS011;33568;45.286;9.900;2022-08-30T01:58:30;9.93;;;7.07;;
47804;SDS011;33568;45.286;9.900;2022-08-30T02:00:56;11.82;;;6.95;;
47804;SDS011;33568;45.286;9.900;2022-08-30T02:03:24;8.27;;;6.40;;
47804;SDS011;33568;45.286;9.900;2022-08-30T02:05:56;10.93;;;7.82;;
47804;SDS011;33568;45.286;9.900;2022-08-30T02:08:27;8.70;;;6.60;;
47804;SDS011;33568;45.286;9.900;2022-08-30T02:10:53;10.10;;;6.80;;
47804;SDS011;33568;45.286;9.900;2022-08-30T02:13:19;8.10;;;6.70;;
47804;SDS011;33568;45.286;9.900;2022-08-30T02:15:46;11.27;;;7.22;;
47804;SDS011;33568;45.286;9.900;2022-08-30T02:18:13;9.75;;;6.85;;
47804;SDS011;33568;45.286;9.900;2022-08-30T02:20:39;8.30;;;6.30;;
47804;SDS011;33568;45.286;9.900;2022-08-30T02:23:06;7.30;;;6.60;;
47804;SDS011;33568;45.286;9.900;2022-08-30T02:25:32;9.65;;;6.90;;
47804;SDS011;33568;45.286;9.900;2022-08-30T02:27:59;8.48;;;7.57;;
47804;SDS011;33568;45.286;9.900;2022-08-30T02:30:25;9.73;;;8.68;;
47804;SDS011;33568;45.286;9.900;2022-08-30T02:32:52;12.23;;;10.52;;
47804;SDS011;33568;45.286;9.900;2022-08-30T02:35:18;7.45;;;6.68;;
47804;SDS011;33568;45.286;9.900;2022-08-30T02:37:44;8.68;;;7.68;;
47804;SDS011;33568;45.286;9.900;2022-08-30T02:40:11;10.23;;;8.02;;
47804;SDS011;33568;45.286;9.900;2022-08-30T02:42:39;10.90;;;6.97;;
47804;SDS011;33568;45.286;9.900;2022-08-30T02:45:06;9.63;;;7.22;;
47804;SDS011;33568;45.286;9.900;2022-08-30T02:47:34;8.35;;;6.07;;
47804;SDS011;33568;45.286;9.900;2022-08-30T02:50:04;7.70;;;6.28;;
47804;SDS011;33568;45.286;9.900;2022-08-30T02:52:33;7.40;;;6.22;;
47804;SDS011;33568;45.286;9.900;2022-08-30T02:54:59;9.85;;;6.43;;
47804;SDS011;33568;45.286;9.900;2022-08-30T02:57:26;10.95;;;6.40;;
47804;SDS011;33568;45.286;9.900;2022-08-30T02:59:52;7.75;;;6.95;;
47804;SDS011;33568;45.286;9.900;2022-08-30T03:02:19;9.50;;;7.45;;
47804;SDS011;33568;45.286;9.900;2022-08-30T03:04:46;8.27;;;6.43;;
47804;SDS011;33568;45.286;9.900;2022-08-30T03:07:14;7.80;;;7.00;;
47804;SDS011;33568;45.286;9.900;2022-08-30T03:09:41;11.85;;;6.88;;
47804;SDS011;33568;45.286;9.900;2022-08-30T03:12:07;9.32;;;6.80;;
47804;SDS011;33568;45.286;9.900;2022-08-30T03:14:35;10.45;;;7.05;;
47804;SDS011;33568;45.286;9.900;2022-08-30T03:17:05;9.13;;;6.28;;
47804;SDS011;33568;45.286;9.900;2022-08-30T03:19:33;6.95;;;6.25;;
47804;SDS011;33568;45.286;9.900;2022-08-30T03:22:02;8.70;;;6.97;;
47804;SDS011;33568;45.286;9.900;2022-08-30T03:24:29;8.57;;;6.65;;
47804;SDS011;33568;45.286;9.900;2022-08-30T03:26:56;9.73;;;7.18;;
47804;SDS011;33568;45.286;9.900;2022-08-30T03:29:23;10.68;;;6.97;;
47804;SDS011;33568;45.286;9.900;2022-08-30T03:31:49;11.10;;;6.53;;
47804;SDS011;33568;45.286;9.900;2022-08-30T03:34:17;7.65;;;6.70;;
47804;SDS011;33568;45.286;9.900;2022-08-30T03:36:43;9.73;;;6.80;;
47804;SDS011;33568;45.286;9.900;2022-08-30T03:39:10;10.25;;;6.82;;
47804;SDS011;33568;45.286;9.900;2022-08-30T03:41:36;9.82;;;6.63;;
47804;SDS011;33568;45.286;9.900;2022-08-30T03:44:02;9.75;;;7.57;;
47804;SDS011;33568;45.286;9.900;2022-08-30T03:46:29;11.90;;;6.82;;
47804;SDS011;33568;45.286;9.900;2022-08-30T03:48:55;8.50;;;6.75;;
47804;SDS011;33568;45.286;9.900;2022-08-30T03:51:22;10.50;;;7.78;;
47804;SDS011;33568;45.286;9.900;2022-08-30T03:53:49;9.88;;;7.35;;
47804;SDS011;33568;45.286;9.900;2022-08-30T03:56:16;8.90;;;7.55;;
47804;SDS011;33568;45.286;9.900;2022-08-30T03:58:43;7.60;;;6.30;;
47804;SDS011;33568;45.286;9.900;2022-08-30T04:01:10;6.78;;;5.68;;
47804;SDS011;33568;45.286;9.900;2022-08-30T04:03:36;8.57;;;7.32;;
47804;SDS011;33568;45.286;9.900;2022-08-30T04:06:03;10.75;;;8.35;;
47804;SDS011;33568;45.286;9.900;2022-08-30T04:08:30;10.57;;;6.68;;
47804;SDS011;33568;45.286;9.900;2022-08-30T04:10:56;7.63;;;6.65;;
47804;SDS011;33568;45.286;9.900;2022-08-30T04:13:23;7.57;;;6.85;;
47804;SDS011;33568;45.286;9.900;2022-08-30T04:15:49;9.18;;;7.40;;
47804;SDS011;33568;45.286;9.900;2022-08-30T04:18:16;12.25;;;8.43;;
47804;SDS011;33568;45.286;9.900;2022-08-30T04:20:42;7.75;;;6.43;;
47804;SDS011;33568;45.286;9.900;2022-08-30T04:23:09;6.68;;;6.00;;
47804;SDS011;33568;45.286;9.900;2022-08-30T04:25:37;13.77;;;7.15;;
47804;SDS011;33568;45.286;9.900;2022-08-30T04:28:04;11.38;;;8.40;;
47804;SDS011;33568;45.286;9.900;2022-08-30T04:30:31;10.18;;;8.75;;
47804;SDS011;33568;45.286;9.900;2022-08-30T04:32:57;10.77;;;7.80;;
47804;SDS011;33568;45.286;9.900;2022-08-30T04:35:24;8.57;;;7.68;;
47804;SDS011;33568;45.286;9.900;2022-08-30T04:37:51;11.60;;;8.07;;
47804;SDS011;33568;45.286;9.900;2022-08-30T04:40:18;7.85;;;6.93;;
47804;SDS011;33568;45.286;9.900;2022-08-30T04:42:45;11.57;;;8.20;;
47804;SDS011;33568;45.286;9.900;2022-08-30T04:45:13;8.63;;;7.07;;
47804;SDS011;33568;45.286;9.900;2022-08-30T04:47:41;11.40;;;8.55;;
47804;SDS011;33568;45.286;9.900;2022-08-30T04:50:08;15.00;;;10.40;;
47804;SDS011;33568;45.286;9.900;2022-08-30T04:52:36;10.90;;;9.32;;
47804;SDS011;33568;45.286;9.900;2022-08-30T04:55:03;9.80;;;8.35;;
47804;SDS011;33568;45.286;9.900;2022-08-30T04:57:30;11.18;;;9.38;;
47804;SDS011;33568;45.286;9.900;2022-08-30T04:59:57;10.45;;;8.15;;
47804;SDS011;33568;45.286;9.900;2022-08-30T05:02:23;12.25;;;7.57;;
47804;SDS011;33568;45.286;9.900;2022-08-30T05:04:49;11.15;;;7.43;;
47804;SDS011;33568;45.286;9.900;2022-08-30T05:07:36;10.13;;;7.15;;
47804;SDS011;33568;45.286;9.900;2022-08-30T05:10:04;9.68;;;7.22;;
47804;SDS011;33568;45.286;9.900;2022-08-30T05:12:31;9.10;;;6.28;;
47804;SDS011;33568;45.286;9.900;2022-08-30T05:14:57;7.20;;;6.47;;
47804;SDS011;33568;45.286;9.900;2022-08-30T05:17:24;7.53;;;6.75;;
47804;SDS011;33568;45.286;9.900;2022-08-30T05:19:50;10.57;;;7.25;;
47804;SDS011;33568;45.286;9.900;2022-08-30T05:22:17;8.07;;;6.20;;
47804;SDS011;33568;45.286;9.900;2022-08-30T05:24:44;6.22;;;5.63;;
47804;SDS011;33568;45.286;9.900;2022-08-30T05:27:10;7.15;;;6.25;;
47804;SDS011;33568;45.286;9.900;2022-08-30T05:29:36;7.38;;;6.63;;
47804;SDS011;33568;45.286;9.900;2022-08-30T05:32:03;7.82;;;6.20;;
47804;SDS011;33568;45.286;9.900;2022-08-30T05:34:29;8.18;;;6.10;;
47804;SDS011;33568;45.286;9.900;2022-08-30T05:36:56;7.93;;;6.10;;
47804;SDS011;33568;45.286;9.900;2022-08-30T05:39:24;7.10;;;5.75;;
47804;SDS011;33568;45.286;9.900;2022-08-30T05:41:50;8.88;;;5.65;;
47804;SDS011;33568;45.286;9.900;2022-08-30T05:44:20;7.10;;;5.32;;
47804;SDS011;33568;45.286;9.900;2022-08-30T05:46:47;5.75;;;5.10;;
47804;SDS011;33568;45.286;9.900;2022-08-30T05:49:13;7.45;;;6.22;;
47804;SDS011;33568;45.286;9.900;2022-08-30T05:51:40;9.68;;;6.10;;
47804;SDS011;33568;45.286;9.900;2022-08-30T05:54:07;8.63;;;6.47;;
47804;SDS011;33568;45.286;9.900;2022-08-30T05:56:34;5.50;;;4.97;;
47804;SDS011;33568;45.286;9.900;2022-08-30T05:59:04;8.48;;;4.85;;
47804;SDS011;33568;45.286;9.900;2022-08-30T06:01:33;6.95;;;4.53;;
47804;SDS011;33568;45.286;9.900;2022-08-30T06:04:03;6.00;;;4.53;;
47804;SDS011;33568;45.286;9.900;2022-08-30T06:06:31;7.47;;;4.25;;
47804;SDS011;33568;45.286;9.900;2022-08-30T06:08:58;4.53;;;3.95;;
47804;SDS011;33568;45.286;9.900;2022-08-30T06:11:27;6.15;;;5.00;;
47804;SDS011;33568;45.286;9.900;2022-08-30T06:13:54;4.50;;;4.05;;
47804;SDS011;33568;45.286;9.900;2022-08-30T06:16:21;8.10;;;3.72;;
47804;SDS011;33568;45.286;9.900;2022-08-30T06:18:51;6.70;;;4.55;;
47804;SDS011;33568;45.286;9.900;2022-08-30T06:21:22;6.43;;;4.05;;
47804;SDS011;33568;45.286;9.900;2022-08-30T06:23:54;4.73;;;3.27;;
47804;SDS011;33568;45.286;9.900;2022-08-30T06:26:21;4.97;;;3.70;;
47804;SDS011;33568;45.286;9.900;2022-08-30T06:28:47;12.00;;;3.85;;
47804;SDS011;33568;45.286;9.900;2022-08-30T06:31:15;11.82;;;3.60;;
47804;SDS011;33568;45.286;9.900;2022-08-30T06:33:42;7.35;;;3.30;;
47804;SDS011;33568;45.286;9.900;2022-08-30T06:36:10;7.65;;;3.30;;
47804;SDS011;33568;45.286;9.900;2022-08-30T06:38:39;4.95;;;3.25;;
47804;SDS011;33568;45.286;9.900;2022-08-30T06:41:06;6.80;;;3.00;;
47804;SDS011;33568;45.286;9.900;2022-08-30T06:43:36;5.47;;;3.20;;
47804;SDS011;33568;45.286;9.900;2022-08-30T06:46:03;11.27;;;3.22;;
47804;SDS011;33568;45.286;9.900;2022-08-30T06:48:31;4.78;;;2.75;;
47804;SDS011;33568;45.286;9.900;2022-08-30T06:50:57;6.63;;;3.00;;
47804;SDS011;33568;45.286;9.900;2022-08-30T06:53:24;4.53;;;3.42;;
47804;SDS011;33568;45.286;9.900;2022-08-30T06:55:58;4.85;;;3.95;;
47804;SDS011;33568;45.286;9.900;2022-08-30T06:58:28;4.05;;;2.50;;
47804;SDS011;33568;45.286;9.900;2022-08-30T07:00:56;5.28;;;3.53;;
47804;SDS011;33568;45.286;9.900;2022-08-30T07:03:23;4.85;;;3.35;;
47804;SDS011;33568;45.286;9.900;2022-08-30T07:05:52;4.22;;;2.92;;
47804;SDS011;33568;45.286;9.900;2022-08-30T07:08:20;5.22;;;3.33;;
47804;SDS011;33568;45.286;9.900;2022-08-30T07:10:48;4.65;;;2.92;;
47804;SDS011;33568;45.286;9.900;2022-08-30T07:13:16;3.05;;;2.67;;
47804;SDS011;33568;45.286;9.900;2022-08-30T07:15:44;5.07;;;3.75;;
47804;SDS011;33568;45.286;9.900;2022-08-30T07:18:11;4.35;;;2.97;;
47804;SDS011;33568;45.286;9.900;2022-08-30T07:20:57;4.43;;;3.15;;
47804;SDS011;33568;45.286;9.900;2022-08-30T07:23:24;4.55;;;2.88;;
47804;SDS011;33568;45.286;9.900;2022-08-30T07:25:50;5.45;;;2.55;;
47804;SDS011;33568;45.286;9.900;2022-08-30T07:28:16;3.15;;;2.55;;
47804;SDS011;33568;45.286;9.900;2022-08-30T07:30:43;7.30;;;2.78;;
47804;SDS011;33568;45.286;9.900;2022-08-30T07:33:09;3.08;;;2.88;;
47804;SDS011;33568;45.286;9.900;2022-08-30T07:35:35;8.45;;;4.35;;
47804;SDS011;33568;45.286;9.900;2022-08-30T07:38:02;7.15;;;4.68;;
47804;SDS011;33568;45.286;9.900;2022-08-30T07:40:28;5.15;;;2.60;;
47804;SDS011;33568;45.286;9.900;2022-08-30T07:42:55;4.30;;;2.90;;
47804;SDS011;33568;45.286;9.900;2022-08-30T07:45:21;4.78;;;4.25;;
47804;SDS011;33568;45.286;9.900;2022-08-30T07:47:48;4.05;;;3.55;;
47804;SDS011;33568;45.286;9.900;2022-08-30T07:50:14;7.18;;;4.35;;
47804;SDS011;33568;45.286;9.900;2022-08-30T07:52:40;3.15;;;2.50;;
47804;SDS011;33568;45.286;9.900;2022-08-30T07:55:07;6.18;;;4.38;;
47804;SDS011;33568;45.286;9.900;2022-08-30T07:57:34;6.72;;;3.90;;
47804;SDS011;33568;45.286;9.900;2022-08-30T08:00:02;8.82;;;5.10;;
47804;SDS011;33568;45.286;9.900;2022-08-30T08:02:37;9.70;;;6.10;;
47804;SDS011;33568;45.286;9.900;2022-08-30T08:05:05;5.47;;;4.50;;
47804;SDS011;33568;45.286;9.900;2022-08-30T08:07:33;8.35;;;5.55;;
47804;SDS011;33568;45.286;9.900;2022-08-30T08:10:00;12.07;;;5.78;;
47804;SDS011;33568;45.286;9.900;2022-08-30T08:12:27;11.43;;;5.88;;
47804;SDS011;33568;45.286;9.900;2022-08-30T08:14:55;7.05;;;6.35;;
47804;SDS011;33568;45.286;9.900;2022-08-30T08:17:21;15.82;;;6.50;;
47804;SDS011;33568;45.286;9.900;2022-08-30T08:19:47;9.57;;;6.75;;
47804;SDS011;33568;45.286;9.900;2022-08-30T08:22:14;5.82;;;5.22;;
47804;SDS011;33568;45.286;9.900;2022-08-30T08:24:41;6.07;;;4.78;;
47804;SDS011;33568;45.286;9.900;2022-08-30T08:27:07;7.53;;;4.50;;
47804;SDS011;33568;45.286;9.900;2022-08-30T08:29:35;14.18;;;7.57;;
47804;SDS011;33568;45.286;9.900;2022-08-30T08:32:02;8.95;;;5.70;;
47804;SDS011;33568;45.286;9.900;2022-08-30T08:34:28;5.95;;;4.75;;
47804;SDS011;33568;45.286;9.900;2022-08-30T08:36:55;7.47;;;6.70;;
47804;SDS011;33568;45.286;9.900;2022-08-30T08:39:22;8.32;;;5.97;;
47804;SDS011;33568;45.286;9.900;2022-08-30T08:42:05;7.15;;;4.88;;
47804;SDS011;33568;45.286;9.900;2022-08-30T08:50:25;22.13;;;8.55;;
47804;SDS011;33568;45.286;9.900;2022-08-30T08:52:52;10.02;;;7.95;;
47804;SDS011;33568;45.286;9.900;2022-08-30T08:55:45;12.90;;;8.02;;
47804;SDS011;33568;45.286;9.900;2022-08-30T08:58:24;13.57;;;7.47;;
47804;SDS011;33568;45.286;9.900;2022-08-30T09:00:56;12.52;;;8.52;;
47804;SDS011;33568;45.286;9.900;2022-08-30T09:03:25;10.52;;;7.57;;
47804;SDS011;33568;45.286;9.900;2022-08-30T09:05:53;10.40;;;8.38;;
47804;SDS011;33568;45.286;9.900;2022-08-30T09:08:21;17.95;;;8.63;;
47804;SDS011;33568;45.286;9.900;2022-08-30T09:10:53;13.00;;;8.68;;
47804;SDS011;33568;45.286;9.900;2022-08-30T09:13:31;11.63;;;7.80;;
47804;SDS011;33568;45.286;9.900;2022-08-30T09:15:59;8.60;;;7.80;;
47804;SDS011;33568;45.286;9.900;2022-08-30T09:18:45;10.95;;;6.28;;
47804;SDS011;33568;45.286;9.900;2022-08-30T09:21:13;8.82;;;7.75;;
47804;SDS011;33568;45.286;9.900;2022-08-30T09:23:48;8.30;;;6.57;;
47804;SDS011;33568;45.286;9.900;2022-08-30T09:26:29;8.98;;;6.15;;
47804;SDS011;33568;45.286;9.900;2022-08-30T09:28:59;10.82;;;7.38;;
47804;SDS011;33568;45.286;9.900;2022-08-30T09:31:29;14.52;;;9.18;;
47804;SDS011;33568;45.286;9.900;2022-08-30T09:34:01;11.57;;;8.02;;
47804;SDS011;33568;45.286;9.900;2022-08-30T09:36:52;7.43;;;6.72;;
47804;SDS011;33568;45.286;9.900;2022-08-30T09:39:29;12.98;;;9.10;;
47804;SDS011;33568;45.286;9.900;2022-08-30T09:42:15;11.70;;;7.57;;
47804;SDS011;33568;45.286;9.900;2022-08-30T09:44:46;16.42;;;8.70;;
47804;SDS011;33568;45.286;9.900;2022-08-30T09:47:20;12.90;;;9.70;;
47804;SDS011;33568;45.286;9.900;2022-08-30T09:50:09;13.68;;;9.43;;
47804;SDS011;33568;45.286;9.900;2022-08-30T10:03:36;9.33;;;8.07;;
47804;SDS011;33568;45.286;9.900;2022-08-30T10:06:12;12.85;;;7.65;;
47804;SDS011;33568;45.286;9.900;2022-08-30T10:16:51;13.18;;;9.23;;
47804;SDS011;33568;45.286;9.900;2022-08-30T10:22:20;8.88;;;7.97;;
47804;SDS011;33568;45.286;9.900;2022-08-30T10:25:10;9.93;;;4.90;;
47804;SDS011;33568;45.286;9.900;2022-08-30T10:27:46;10.68;;;7.68;;
47804;SDS011;33568;45.286;9.900;2022-08-30T10:30:24;12.15;;;8.65;;
47804;SDS011;33568;45.286;9.900;2022-08-30T10:33:04;14.45;;;8.95;;
47804;SDS011;33568;45.286;9.900;2022-08-30T10:35:57;10.90;;;8.13;;
47804;SDS011;33568;45.286;9.900;2022-08-30T10:38:34;10.73;;;8.70;;
47804;SDS011;33568;45.286;9.900;2022-08-30T10:46:33;10.25;;;8.65;;
47804;SDS011;33568;45.286;9.900;2022-08-30T10:49:09;11.85;;;10.57;;
47804;SDS011;33568;45.286;9.900;2022-08-30T10:51:43;11.20;;;10.07;;
47804;SDS011;33568;45.286;9.900;2022-08-30T10:54:12;14.43;;;10.57;;
47804;SDS011;33568;45.286;9.900;2022-08-30T10:56:44;9.60;;;8.50;;
47804;SDS011;33568;45.286;9.900;2022-08-30T10:59:15;12.45;;;10.82;;
47804;SDS011;33568;45.286;9.900;2022-08-30T11:01:54;11.32;;;8.95;;
47804;SDS011;33568;45.286;9.900;2022-08-30T11:04:52;17.80;;;8.88;;
47804;SDS011;33568;45.286;9.900;2022-08-30T11:12:55;11.85;;;10.55;;
47804;SDS011;33568;45.286;9.900;2022-08-30T11:15:34;18.95;;;11.65;;
47804;SDS011;33568;45.286;9.900;2022-08-30T11:18:19;15.77;;;11.27;;
47804;SDS011;33568;45.286;9.900;2022-08-30T11:20:48;13.05;;;11.73;;
47804;SDS011;33568;45.286;9.900;2022-08-30T11:38:57;14.00;;;12.02;;
47804;SDS011;33568;45.286;9.900;2022-08-30T11:43:54;17.98;;;10.05;;
47804;SDS011;33568;45.286;9.900;2022-08-30T11:48:53;11.13;;;9.90;;
47804;SDS011;33568;45.286;9.900;2022-08-30T12:05:08;5.72;;;4.72;;
47804;SDS011;33568;45.286;9.900;2022-08-30T12:07:56;13.63;;;10.40;;
47804;SDS011;33568;45.286;9.900;2022-08-30T12:10:40;10.32;;;9.23;;
47804;SDS011;33568;45.286;9.900;2022-08-30T12:13:49;14.90;;;13.23;;
47804;SDS011;33568;45.286;9.900;2022-08-30T12:15:57;13.18;;;11.77;;
47804;SDS011;33568;45.286;9.900;2022-08-30T12:18:32;12.32;;;11.23;;
47804;SDS011;33568;45.286;9.900;2022-08-30T12:21:13;16.35;;;11.55;;
47804;SDS011;33568;45.286;9.900;2022-08-30T12:24:02;13.43;;;12.05;;
47804;SDS011;33568;45.286;9.900;2022-08-30T12:26:43;15.75;;;13.02;;
47804;SDS011;33568;45.286;9.900;2022-08-30T12:29:16;16.80;;;12.05;;
47804;SDS011;33568;45.286;9.900;2022-08-30T12:34:32;15.95;;;11.25;;
47804;SDS011;33568;45.286;9.900;2022-08-30T12:37:05;12.75;;;11.02;;
47804;SDS011;33568;45.286;9.900;2022-08-30T12:42:39;15.35;;;11.20;;
47804;SDS011;33568;45.286;9.900;2022-08-30T12:45:27;11.50;;;9.82;;
47804;SDS011;33568;45.286;9.900;2022-08-30T12:48:09;19.95;;;13.00;;
47804;SDS011;33568;45.286;9.900;2022-08-30T12:50:55;12.60;;;7.82;;
47804;SDS011;33568;45.286;9.900;2022-08-30T12:53:37;21.60;;;13.07;;
47804;SDS011;33568;45.286;9.900;2022-08-30T12:56:12;16.98;;;11.82;;
47804;SDS011;33568;45.286;9.900;2022-08-30T12:58:42;17.25;;;13.18;;
47804;SDS011;33568;45.286;9.900;2022-08-30T13:04:00;11.75;;;6.10;;
47804;SDS011;33568;45.286;9.900;2022-08-30T13:09:09;8.70;;;6.13;;
47804;SDS011;33568;45.286;9.900;2022-08-30T13:11:47;5.85;;;4.18;;
47804;SDS011;33568;45.286;9.900;2022-08-30T13:14:19;6.03;;;4.65;;
47804;SDS011;33568;45.286;9.900;2022-08-30T13:19:38;6.28;;;4.60;;
47804;SDS011;33568;45.286;9.900;2022-08-30T13:22:22;7.53;;;4.90;;
47804;SDS011;33568;45.286;9.900;2022-08-30T13:24:50;8.52;;;5.18;;
47804;SDS011;33568;45.286;9.900;2022-08-30T13:27:17;8.05;;;6.18;;
47804;SDS011;33568;45.286;9.900;2022-08-30T13:29:44;6.07;;;4.97;;
47804;SDS011;33568;45.286;9.900;2022-08-30T13:32:10;6.65;;;5.20;;
47804;SDS011;33568;45.286;9.900;2022-08-30T13:34:38;5.40;;;4.53;;
47804;SDS011;33568;45.286;9.900;2022-08-30T13:37:06;6.45;;;5.13;;
47804;SDS011;33568;45.286;9.900;2022-08-30T13:39:35;7.88;;;5.82;;
47804;SDS011;33568;45.286;9.900;2022-08-30T13:42:01;7.35;;;4.47;;
47804;SDS011;33568;45.286;9.900;2022-08-30T13:44:27;13.23;;;10.10;;
47804;SDS011;33568;45.286;9.900;2022-08-30T13:46:54;8.73;;;6.25;;
47804;SDS011;33568;45.286;9.900;2022-08-30T13:49:25;7.40;;;4.53;;
47804;SDS011;33568;45.286;9.900;2022-08-30T13:51:54;8.63;;;6.03;;
47804;SDS011;33568;45.286;9.900;2022-08-30T13:54:21;4.97;;;3.90;;
47804;SDS011;33568;45.286;9.900;2022-08-30T13:56:49;10.88;;;7.18;;
47804;SDS011;33568;45.286;9.900;2022-08-30T13:59:17;8.20;;;7.25;;
47804;SDS011;33568;45.286;9.900;2022-08-30T14:01:45;4.97;;;3.88;;
47804;SDS011;33568;45.286;9.900;2022-08-30T14:04:13;12.05;;;7.57;;
47804;SDS011;33568;45.286;9.900;2022-08-30T14:06:40;4.82;;;4.32;;
47804;SDS011;33568;45.286;9.900;2022-08-30T14:09:07;7.47;;;4.93;;
47804;SDS011;33568;45.286;9.900;2022-08-30T14:11:35;5.85;;;4.70;;
47804;SDS011;33568;45.286;9.900;2022-08-30T14:14:02;8.20;;;4.63;;
47804;SDS011;33568;45.286;9.900;2022-08-30T14:16:29;8.15;;;5.00;;
47804;SDS011;33568;45.286;9.900;2022-08-30T14:18:56;7.68;;;6.00;;
47804;SDS011;33568;45.286;9.900;2022-08-30T14:21:24;8.40;;;3.97;;
47804;SDS011;33568;45.286;9.900;2022-08-30T14:23:54;6.22;;;3.95;;
47804;SDS011;33568;45.286;9.900;2022-08-30T14:26:23;8.07;;;4.88;;
47804;SDS011;33568;45.286;9.900;2022-08-30T14:28:54;6.57;;;4.38;;
47804;SDS011;33568;45.286;9.900;2022-08-30T14:31:21;11.02;;;6.82;;
47804;SDS011;33568;45.286;9.900;2022-08-30T14:33:48;13.63;;;7.68;;
47804;SDS011;33568;45.286;9.900;2022-08-30T14:36:15;11.75;;;7.57;;
47804;SDS011;33568;45.286;9.900;2022-08-30T14:38:42;9.70;;;8.25;;
47804;SDS011;33568;45.286;9.900;2022-08-30T14:41:09;5.45;;;4.00;;
47804;SDS011;33568;45.286;9.900;2022-08-30T14:43:35;7.70;;;4.07;;
47804;SDS011;33568;45.286;9.900;2022-08-30T14:46:05;16.48;;;10.90;;
47804;SDS011;33568;45.286;9.900;2022-08-30T14:48:31;8.30;;;3.85;;
47804;SDS011;33568;45.286;9.900;2022-08-30T14:50:58;11.77;;;9.48;;
47804;SDS011;33568;45.286;9.900;2022-08-30T14:53:24;4.55;;;3.40;;
47804;SDS011;33568;45.286;9.900;2022-08-30T14:55:51;5.50;;;3.83;;
47804;SDS011;33568;45.286;9.900;2022-08-30T14:58:17;5.80;;;4.43;;
47804;SDS011;33568;45.286;9.900;2022-08-30T15:00:50;7.53;;;3.92;;
47804;SDS011;33568;45.286;9.900;2022-08-30T15:03:17;6.68;;;5.40;;
47804;SDS011;33568;45.286;9.900;2022-08-30T15:05:47;12.55;;;6.18;;
47804;SDS011;33568;45.286;9.900;2022-08-30T15:08:15;14.45;;;10.88;;
47804;SDS011;33568;45.286;9.900;2022-08-30T15:10:42;6.68;;;3.75;;
47804;SDS011;33568;45.286;9.900;2022-08-30T15:13:09;6.55;;;3.58;;
47804;SDS011;33568;45.286;9.900;2022-08-30T15:15:35;6.00;;;3.40;;
47804;SDS011;33568;45.286;9.900;2022-08-30T15:18:02;8.55;;;5.07;;
47804;SDS011;33568;45.286;9.900;2022-08-30T15:20:29;7.25;;;5.18;;
47804;SDS011;33568;45.286;9.900;2022-08-30T15:22:55;5.85;;;4.13;;
47804;SDS011;33568;45.286;9.900;2022-08-30T15:25:22;5.35;;;3.58;;
47804;SDS011;33568;45.286;9.900;2022-08-30T15:27:48;4.60;;;3.70;;
47804;SDS011;33568;45.286;9.900;2022-08-30T15:30:15;4.57;;;3.70;;
47804;SDS011;33568;45.286;9.900;2022-08-30T15:32:41;7.28;;;3.85;;
47804;SDS011;33568;45.286;9.900;2022-08-30T15:35:08;7.53;;;4.30;;
47804;SDS011;33568;45.286;9.900;2022-08-30T15:37:34;9.15;;;4.28;;
47804;SDS011;33568;45.286;9.900;2022-08-30T15:40:02;4.03;;;3.63;;
47804;SDS011;33568;45.286;9.900;2022-08-30T15:42:30;7.15;;;4.50;;
47804;SDS011;33568;45.286;9.900;2022-08-30T15:44:58;7.38;;;3.95;;
47804;SDS011;33568;45.286;9.900;2022-08-30T15:47:24;6.35;;;4.05;;
47804;SDS011;33568;45.286;9.900;2022-08-30T15:49:55;5.63;;;3.83;;
47804;SDS011;33568;45.286;9.900;2022-08-30T15:52:27;5.60;;;4.43;;
47804;SDS011;33568;45.286;9.900;2022-08-30T15:54:55;7.20;;;4.15;;
47804;SDS011;33568;45.286;9.900;2022-08-30T15:57:22;6.65;;;4.82;;
47804;SDS011;33568;45.286;9.900;2022-08-30T15:59:48;7.28;;;6.15;;
47804;SDS011;33568;45.286;9.900;2022-08-30T16:02:15;9.88;;;3.80;;
47804;SDS011;33568;45.286;9.900;2022-08-30T16:04:41;4.88;;;3.35;;
47804;SDS011;33568;45.286;9.900;2022-08-30T16:07:08;4.60;;;4.13;;
47804;SDS011;33568;45.286;9.900;2022-08-30T16:09:34;7.68;;;3.92;;
47804;SDS011;33568;45.286;9.900;2022-08-30T16:12:02;4.25;;;3.80;;
47804;SDS011;33568;45.286;9.900;2022-08-30T16:14:30;6.47;;;4.07;;
47804;SDS011;33568;45.286;9.900;2022-08-30T16:16:56;5.75;;;3.55;;
47804;SDS011;33568;45.286;9.900;2022-08-30T16:19:23;9.43;;;4.25;;
47804;SDS011;33568;45.286;9.900;2022-08-30T16:21:50;6.55;;;3.85;;
47804;SDS011;33568;45.286;9.900;2022-08-30T16:24:17;7.10;;;3.97;;
47804;SDS011;33568;45.286;9.900;2022-08-30T16:26:44;7.07;;;5.05;;